• Join FlightAware (Why Join?)
  • Login
  • US Flag 
Gobble Gobble! 
06:55AM EST


 

Airport Tracker/Info


-or-


 

Live Flight TrackerFlight Track Log ✈ FDX1409 ✈ 20-Jul-2013 ✈ KMEM - KMCO

Flight Track Log - Related Links

Times and Time Zones

All times are in EDT time to prevent confusion due to time zone crossing. See the FDX1409 flight status page for this flight to view local times or setup timezone preferences in your user account.

Time Position Orientation Groundspeed Altitude Reporting Facility
EDT Latitude Longitude Course Direction KTS MPH feet Rate Location/Type
04:29AM 35.0167 -89.9833 180° South 167 192 1,300  Level KMEM
04:29AM 34.9833 -89.9833 180° South 187 215 2,500 2,160 Climbing KMEM
04:31AM 34.9000 -89.9833 180° South 269 310 5,500 3,000 Climbing KMEM
04:32AM 34.8333 -89.9833 180° South 270 311 8,900 2,220 Climbing KMEM
04:33AM 34.7294 -89.9933 185° South 297 342 10,400 1,500 Climbing Memphis Center
04:34AM 34.6394 -89.9256 148° Southeast 366 421 12,200 2,100 Climbing Memphis Center
04:35AM 34.5783 -89.8097 123° Southeast 376 433 14,600 2,160 Climbing Memphis Center
04:36AM 34.5047 -89.7019 130° Southeast 400 460 16,600 2,100 Climbing Memphis Center
04:37AM 34.4311 -89.5867 128° Southeast 416 479 18,800 2,100 Climbing Memphis Center
04:38AM 34.3572 -89.4717 128° Southeast 426 490 20,800 1,860 Climbing Memphis Center
04:39AM 34.2792 -89.3542 129° Southeast 434 499 22,600 1,680 Climbing Memphis Center
04:40AM 34.2031 -89.2397 129° Southeast 439 505 24,200 1,500 Climbing Memphis Center
04:41AM 34.1247 -89.1150 127° Southeast 450 518 25,600 1,200 Climbing Memphis Center
04:42AM 34.0461 -88.9933 128° Southeast 459 528 26,600 1,080 Climbing Memphis Center
04:43AM 33.9614 -88.8669 129° Southeast 477 549 27,800 1,380 Climbing Memphis Center
04:44AM 33.8806 -88.7458 129° Southeast 477 549 29,400 1,620 Climbing Memphis Center
04:45AM 33.7953 -88.6200 129° Southeast 471 542 31,100 1,620 Climbing Memphis Center
04:46AM 33.7142 -88.4942 128° Southeast 471 542 32,700 1,380 Climbing Memphis Center
04:47AM 33.6308 -88.3764 130° Southeast 471 542 33,900 1,080 Climbing Memphis Center
04:49AM 33.4356 -88.0814 128° Southeast 467 537 36,500 360 Climbing Atlanta Center
04:55AM 32.9330 -87.3400 128° Southeast 469 540 37,000 60 Climbing FlightAware
04:56AM 32.8760 -87.2560 129° Southeast 466 536 37,000  Level FlightAware
04:57AM 32.8360 -87.1980 129° Southeast 465 535 37,000  Level FlightAware
04:57AM 32.7740 -87.1090 130° Southeast 463 533 37,000  Level FlightAware
04:58AM 32.7160 -87.0230 129° Southeast 463 533 37,000  Level FlightAware
04:59AM 32.6440 -86.9220 130° Southeast 464 534 37,000  Level FlightAware
04:59AM 32.5880 -86.8410 129° Southeast 464 534 37,000  Level FlightAware
05:00AM 32.5330 -86.7630 130° Southeast 466 536 37,000  Level FlightAware
05:01AM 32.4770 -86.6820 129° Southeast 465 535 37,000  Level FlightAware
05:02AM 32.4280 -86.6120 130° Southeast 465 535 37,000  Level FlightAware
05:02AM 32.3650 -86.5230 130° Southeast 465 535 37,000  Level FlightAware
05:03AM 32.3040 -86.4370 130° Southeast 465 535 37,000  Level FlightAware
05:04AM 32.2480 -86.3570 130° Southeast 465 535 37,000  Level FlightAware
05:04AM 32.1900 -86.2820 132° Southeast 463 533 37,000  Level FlightAware
05:05AM 32.1540 -86.2390 135° Southeast 463 533 37,000  Level FlightAware
05:05AM 32.0910 -86.1630 134° Southeast 463 533 37,000 -120 Level FlightAware
05:06AM 32.0420 -86.1050 135° Southeast 466 536 36,900  Descending FlightAware
05:07AM 31.9760 -86.0260 135° Southeast 469 540 37,000 60 Climbing FlightAware
05:07AM 31.9200 -85.9600 135° Southeast 470 541 37,000  Level FlightAware
05:08AM 31.8440 -85.8690 135° Southeast 473 544 37,000  Level FlightAware
05:09AM 31.7750 -85.7880 135° Southeast 475 547 37,000  Level FlightAware
05:09AM 31.7090 -85.7110 135° Southeast 474 545 37,000  Level FlightAware
05:10AM 31.6480 -85.6380 134° Southeast 473 544 37,000  Level FlightAware
05:11AM 31.5920 -85.5650 132° Southeast 473 544 37,000  Level FlightAware
05:12AM 31.5270 -85.4720 129° Southeast 473 544 37,000  Level FlightAware
05:12AM 31.4590 -85.3780 130° Southeast 475 547 37,000  Level FlightAware
05:13AM 31.4130 -85.3120 129° Southeast 477 549 37,000  Level FlightAware
05:14AM 31.3620 -85.2430 131° Southeast 478 550 37,000  Level FlightAware
05:14AM 31.2910 -85.1430 130° Southeast 480 552 37,000  Level FlightAware
05:15AM 31.2390 -85.0720 131° Southeast 482 555 37,000  Level FlightAware
05:16AM 31.1900 -85.0020 129° Southeast 483 556 37,000  Level FlightAware
05:17AM 31.1120 -84.8900 129° Southeast 483 556 37,000  Level FlightAware
05:17AM 31.0520 -84.8110 132° Southeast 478 550 37,000  Level FlightAware
05:18AM 30.9970 -84.7370 131° Southeast 476 548 37,000  Level FlightAware
05:19AM 30.9520 -84.6750 130° Southeast 476 548 37,000 -120 Level FlightAware
05:19AM 30.8840 -84.5820 130° Southeast 476 548 36,900 -120 Descending FlightAware
05:20AM 30.8410 -84.5220 130° Southeast 476 548 36,900  Level FlightAware
05:21AM 30.7960 -84.4600 130° Southeast 476 548 36,900  Level FlightAware
05:21AM 30.7390 -84.3800 130° Southeast 476 548 36,900 60 Level FlightAware
05:22AM 30.6350 -84.2420 131° Southeast 478 550 37,000 60 Climbing FlightAware
05:23AM 30.5800 -84.1660 130° Southeast 482 555 37,000  Level FlightAware
05:23AM 30.5170 -84.0810 131° Southeast 485 558 37,000  Level FlightAware
05:24AM 30.4730 -84.0240 132° Southeast 485 558 37,000  Level FlightAware
05:25AM 30.4000 -83.9240 130° Southeast 488 562 37,000  Level FlightAware
05:26AM 30.3340 -83.8350 131° Southeast 486 559 37,000  Level FlightAware
05:26AM 30.3290 -83.8290 134° Southeast 484 557 37,000  Level FlightAware
05:27AM 30.1950 -83.6500 131° Southeast 491 565 37,000  Level FlightAware
05:28AM 30.1360 -83.5700 130° Southeast 488 562 37,000  Level FlightAware
05:28AM 30.0760 -83.4900 131° Southeast 481 554 37,000  Level FlightAware
05:29AM 30.0160 -83.4110 131° Southeast 487 560 37,000  Level FlightAware
05:30AM 29.9500 -83.3230 131° Southeast 487 560 37,000  Level FlightAware
05:31AM 29.8840 -83.2340 131° Southeast 487 560 37,000  Level FlightAware
05:31AM 29.8260 -83.1580 131° Southeast 488 562 37,000  Level FlightAware
05:32AM 29.7570 -83.0660 131° Southeast 488 562 37,000  Level FlightAware
05:33AM 29.7110 -83.0020 130° Southeast 488 562 37,000  Level FlightAware
05:33AM 29.6660 -82.9410 130° Southeast 488 562 37,000  Level FlightAware
05:34AM 29.6070 -82.8590 130° Southeast 488 562 37,000  Level FlightAware
05:35AM 29.5610 -82.7970 130° Southeast 488 562 37,000 -6,000 Level FlightAware
05:36AM 29.4000 -82.5980 133° Southeast 451 519 26,300 -6,060 Descending FlightAware
05:37AM 29.3580 -82.5440 132° Southeast 450 518 26,000 -2,400 Descending FlightAware
05:37AM 29.2950 -82.4630 132° Southeast 437 503 23,100 -3,120 Descending FlightAware
05:38AM 29.2430 -82.3950 131° Southeast 421 484 21,600 -1,080 Descending FlightAware
05:39AM 29.2000 -82.3360 130° Southeast 421 484 21,600  Level FlightAware
05:40AM 29.1490 -82.2670 130° Southeast 421 484 21,600  Level FlightAware
05:40AM 29.1110 -82.2140 129° Southeast 421 484 21,600  Level FlightAware
05:41AM 29.0590 -82.1430 130° Southeast 421 484 21,600  Level FlightAware
05:42AM 29.0070 -82.0720 130° Southeast 421 484 21,600 -5,580 Level FlightAware
05:43AM 28.8833 -81.9333 130° Southeast 349 402 11,200 -5,220 Descending Orlando TRACON
05:44AM 28.8408 -81.8592 123° Southeast 356 410 10,900 -180 Descending Jacksonville Center
05:45AM 28.7833 -81.7500 121° Southeast 338 389 10,900 -420 Level Orlando TRACON
05:46AM 28.7667 -81.6500 101° East 302 348 10,100 -1,020 Descending Orlando TRACON
05:47AM 28.7500 -81.5667 103° East 291 335 8,900 -1,380 Descending Orlando TRACON
05:48AM 28.7333 -81.4667 101° East 281 323 7,400 -1,740 Descending Orlando TRACON
05:49AM 28.7167 -81.3833 103° East 270 311 5,500 -1,380 Descending Orlando TRACON
05:50AM 28.6667 -81.3500 150° Southeast 213 245 4,700 -960 Descending Orlando TRACON
05:51AM 28.6167 -81.3333 164° South 180 207 3,600 -1,080 Descending Orlando TRACON
05:52AM 28.5667 -81.3333 180° South 178 205 2,600 -840 Descending Orlando TRACON
05:53AM 28.5333 -81.3333 180° South 134 154 2,000 -840 Descending Orlando TRACON
05:54AM 28.4833 -81.3333 180° South 131 151 1,000 -1,020 Descending Orlando TRACON
05:56AM 28.4294 -81.3090 180° South  Level Estimated
06:03AM 28.4294 -81.3090 24° Northeast  Level Estimated
06:04AM 28.4294 -81.3090 24° Northeast  Level Estimated
06:05AM 28.4294 -81.3090 24° Northeast  Level Estimated
06:06AM 28.4294 -81.3090 24° Northeast  Level Estimated